CPX762 Details

Departure: Jorge Chávez International Airport (SPJC) at 0930 UTC
Arrival: Miami International Airport (KMIA) at 1530 UTC
Route: XOPLI UG448 IKBIX Y183 PEAKY DVALL CURSO5
Notes:


Current Weather Information
SPJC 251200Z 17005KT 6000 -DZ SCT007 OVC010 14/14 Q1015 NOSIG RMK TN14.2 PPTRZ
KMIA 251153Z 20005KT 10SM FEW020 FEW045 SCT250 27/24 A2994 RMK AO2 SLP138 CB DSNT E-SE MOV NE 70003 T02720239 10278 20267 53010